createdAt,value
2023-05-18T00:02:01.621Z,0.93
2023-05-18T00:04:48.312Z,0.90
2023-05-18T00:07:34.941Z,0.80
2023-05-18T00:10:21.017Z,1.00
2023-05-18T00:13:07.117Z,0.80
2023-05-18T00:15:53.995Z,0.70
2023-05-18T00:18:43.453Z,0.75
2023-05-18T00:21:29.794Z,1.00
2023-05-18T00:24:16.370Z,1.13
2023-05-18T00:27:02.387Z,1.00
2023-05-18T00:29:47.985Z,1.02
2023-05-18T00:32:36.633Z,0.95
2023-05-18T00:35:23.869Z,1.13
2023-05-18T00:38:09.830Z,0.85
2023-05-18T00:40:55.939Z,1.17
2023-05-18T00:43:42.384Z,1.30
2023-05-18T00:46:29.040Z,1.00
2023-05-18T00:49:15.345Z,1.10
2023-05-18T00:52:05.256Z,1.10
2023-05-18T00:54:52.806Z,1.05
2023-05-18T00:57:38.643Z,1.15
2023-05-18T01:00:25.291Z,1.00
2023-05-18T01:03:12.139Z,1.13
2023-05-18T01:05:57.503Z,0.90
2023-05-18T01:08:44.348Z,0.95
2023-05-18T01:11:44.126Z,0.82
2023-05-18T01:14:38.094Z,1.10
2023-05-18T01:17:39.079Z,1.20
2023-05-18T01:20:35.374Z,1.15
2023-05-18T01:23:48.802Z,1.10
2023-05-18T01:26:41.134Z,1.20
2023-05-18T01:29:28.537Z,1.08
2023-05-18T01:32:18.960Z,1.52
2023-05-18T01:35:05.591Z,1.05
2023-05-18T01:37:51.504Z,1.10
2023-05-18T01:40:48.006Z,1.10
2023-05-18T01:43:38.002Z,1.17
2023-05-18T01:46:37.007Z,1.05
2023-05-18T01:49:31.377Z,1.05
2023-05-18T01:52:22.953Z,0.90
2023-05-18T01:55:11.619Z,1.10
2023-05-18T01:58:00.550Z,0.98
2023-05-18T02:00:48.144Z,1.00
2023-05-18T02:03:33.713Z,1.15
2023-05-18T02:06:19.844Z,1.13
2023-05-18T02:09:05.800Z,1.10
2023-05-18T02:11:52.522Z,1.15
2023-05-18T02:14:38.424Z,1.38
2023-05-18T02:17:25.683Z,1.10
2023-05-18T02:20:11.858Z,1.08
2023-05-18T02:22:57.609Z,1.05
2023-05-18T02:25:43.200Z,1.20
2023-05-18T02:28:29.131Z,1.20
2023-05-18T02:31:15.484Z,1.20
2023-05-18T02:34:04.198Z,1.33
2023-05-18T02:36:51.157Z,1.20
2023-05-18T02:39:36.915Z,1.40
2023-05-18T02:42:22.297Z,1.13
2023-05-18T02:45:09.376Z,1.23
2023-05-18T02:47:55.050Z,1.10
2023-05-18T02:50:42.459Z,1.25
2023-05-18T02:53:28.437Z,1.20
2023-05-18T02:56:20.871Z,1.05
2023-05-18T02:59:19.655Z,0.98
2023-05-18T03:02:05.884Z,1.17
2023-05-18T03:04:51.955Z,1.17
2023-05-18T03:07:39.349Z,1.33
2023-05-18T03:10:25.302Z,1.40
2023-05-18T03:13:11.110Z,1.40
2023-05-18T03:15:56.833Z,1.30
2023-05-18T03:18:42.551Z,1.20
2023-05-18T03:21:28.568Z,1.30
2023-05-18T03:24:15.375Z,1.33
2023-05-18T03:27:06.166Z,1.25
2023-05-18T03:29:52.420Z,1.40
2023-05-18T03:32:38.241Z,1.40
2023-05-18T03:35:24.150Z,1.35
2023-05-18T03:38:10.007Z,1.35
2023-05-18T03:41:00.805Z,1.40
2023-05-18T03:43:46.453Z,1.20
2023-05-18T03:46:32.605Z,1.25
2023-05-18T03:49:19.029Z,1.30
2023-05-18T03:52:05.891Z,1.40
2023-05-18T03:54:52.167Z,1.38
2023-05-18T03:57:39.438Z,0.90
2023-05-18T04:00:25.477Z,1.40
2023-05-18T04:03:11.510Z,1.20
2023-05-18T04:05:57.939Z,1.13
2023-05-18T04:08:43.880Z,1.13
2023-05-18T04:11:29.472Z,1.00
2023-05-18T04:14:16.652Z,1.30
2023-05-18T04:17:03.042Z,1.60
2023-05-18T04:19:49.970Z,1.45
2023-05-18T04:22:40.887Z,1.20
2023-05-18T04:25:27.157Z,1.10
2023-05-18T04:28:13.355Z,1.35
2023-05-18T04:31:00.818Z,1.10
2023-05-18T04:33:46.830Z,1.40
2023-05-18T04:36:32.650Z,1.20
2023-05-18T04:39:18.283Z,0.80
2023-05-18T04:42:04.417Z,0.90
2023-05-18T04:44:50.070Z,1.60
2023-05-18T04:47:36.869Z,1.00
2023-05-18T04:50:23.927Z,1.20
2023-05-18T04:53:09.958Z,0.93
2023-05-18T04:55:56.034Z,1.00
2023-05-18T04:58:41.973Z,1.00
2023-05-18T05:01:27.780Z,1.10
2023-05-18T05:04:15.477Z,1.20
2023-05-18T05:07:01.787Z,0.88
2023-05-18T05:09:47.295Z,1.10
2023-05-18T05:12:32.942Z,1.05
2023-05-18T05:15:19.362Z,0.80
2023-05-18T05:18:05.075Z,1.10
2023-05-18T05:20:51.938Z,0.93
2023-05-18T05:23:37.824Z,0.95
2023-05-18T05:26:23.887Z,1.10
2023-05-18T05:29:09.573Z,1.00
2023-05-18T05:31:56.081Z,1.08
2023-05-18T05:34:42.499Z,0.93
2023-05-18T05:37:29.972Z,1.00
2023-05-18T05:40:15.857Z,1.02
2023-05-18T05:43:05.138Z,0.90
2023-05-18T05:45:51.463Z,1.00
2023-05-18T05:48:37.611Z,0.90
2023-05-18T05:51:23.250Z,1.10
2023-05-18T05:54:10.838Z,1.10
2023-05-18T05:56:57.023Z,1.00
2023-05-18T05:59:43.625Z,1.00
2023-05-18T06:02:29.472Z,0.80
2023-05-18T06:05:15.309Z,1.10
2023-05-18T06:08:01.103Z,1.20
2023-05-18T06:10:48.782Z,1.13
2023-05-18T06:13:35.297Z,0.98
2023-05-18T06:16:20.873Z,1.10
2023-05-18T06:19:07.946Z,1.10
2023-05-18T06:21:53.435Z,1.08
2023-05-18T06:24:39.152Z,1.02
2023-05-18T06:28:01.843Z,0.98
2023-05-18T06:30:56.798Z,1.20
2023-05-18T06:33:54.421Z,1.08
2023-05-18T06:36:40.064Z,0.95
2023-05-18T06:39:26.043Z,1.08
2023-05-18T06:42:11.523Z,1.17
2023-05-18T06:45:10.151Z,1.13
2023-05-18T06:48:11.395Z,1.35
2023-05-18T06:50:57.977Z,0.95
2023-05-18T06:53:44.281Z,0.98
2023-05-18T06:56:30.315Z,0.98
2023-05-18T06:59:16.533Z,1.23
2023-05-18T07:02:04.516Z,1.23
2023-05-18T07:04:50.880Z,1.45
2023-05-18T07:07:36.706Z,1.30
2023-05-18T07:10:22.515Z,1.02
2023-05-18T07:13:08.247Z,1.17
2023-05-18T07:15:54.268Z,1.02
2023-05-18T07:18:41.435Z,0.98
2023-05-18T07:21:27.272Z,0.95
2023-05-18T07:24:12.938Z,1.10
2023-05-18T07:27:00.793Z,1.17
2023-05-18T07:29:46.746Z,1.30
2023-05-18T07:32:32.363Z,1.10
2023-05-18T07:35:19.593Z,1.10
2023-05-18T07:38:05.455Z,1.30
2023-05-18T07:40:51.317Z,1.40
2023-05-18T07:43:37.065Z,1.40
2023-05-18T07:46:22.910Z,1.20
2023-05-18T07:49:09.031Z,1.27
2023-05-18T07:51:56.485Z,1.30
2023-05-18T07:54:42.138Z,1.38
2023-05-18T07:57:27.800Z,1.20
2023-05-18T08:00:15.294Z,1.30
2023-05-18T08:03:00.944Z,1.80
2023-05-18T08:05:47.013Z,1.20
2023-05-18T08:08:35.170Z,1.20
2023-05-18T08:11:21.147Z,1.45
2023-05-18T08:14:07.130Z,1.90
2023-05-18T08:16:54.277Z,1.40
2023-05-18T08:19:41.837Z,1.50
2023-05-18T08:22:27.710Z,1.45
2023-05-18T08:25:15.017Z,1.60
2023-05-18T08:28:01.143Z,1.63
2023-05-18T08:30:46.833Z,1.50
2023-05-18T08:33:32.715Z,1.55
2023-05-18T08:36:18.095Z,1.50
2023-05-18T08:39:05.020Z,1.30
2023-05-18T08:42:00.587Z,1.75
2023-05-18T08:44:51.095Z,1.30
2023-05-18T08:47:38.204Z,1.50
2023-05-18T08:50:28.780Z,1.73
2023-05-18T08:53:16.681Z,1.60
2023-05-18T08:56:03.788Z,1.50
2023-05-18T08:58:55.049Z,1.52
2023-05-18T09:01:41.962Z,1.40
2023-05-18T09:04:28.253Z,2.05
2023-05-18T09:07:14.986Z,1.50
2023-05-18T09:10:02.762Z,1.95
2023-05-18T09:12:51.077Z,1.60
2023-05-18T09:15:38.329Z,1.50
2023-05-18T09:18:26.855Z,1.70
2023-05-18T09:21:14.025Z,1.40
2023-05-18T09:24:00.641Z,1.50
2023-05-18T09:26:46.888Z,1.75
2023-05-18T09:29:33.819Z,1.63
2023-05-18T09:32:22.629Z,1.40
2023-05-18T09:35:09.786Z,1.42
2023-05-18T09:37:55.619Z,1.33
2023-05-18T09:40:45.330Z,1.13
2023-05-18T09:43:31.164Z,1.50
2023-05-18T09:46:16.939Z,1.38
2023-05-18T09:49:05.944Z,1.50
2023-05-18T09:51:52.053Z,1.70
2023-05-18T09:54:37.664Z,1.42
2023-05-18T09:57:23.626Z,1.58
2023-05-18T10:00:11.272Z,1.48
2023-05-18T10:02:57.369Z,1.50
2023-05-18T10:05:44.753Z,1.75
2023-05-18T10:08:30.429Z,1.30
2023-05-18T10:11:18.438Z,1.65
2023-05-18T10:14:04.939Z,1.30
2023-05-18T10:17:00.264Z,1.63
2023-05-18T10:19:54.433Z,1.40
2023-05-18T10:22:44.729Z,1.90
2023-05-18T10:25:32.048Z,1.45
2023-05-18T10:28:26.859Z,1.50
2023-05-18T10:31:15.979Z,1.40
2023-05-18T10:34:02.422Z,1.48
2023-05-18T10:36:49.563Z,1.67
2023-05-18T10:39:37.275Z,1.90
2023-05-18T10:42:25.445Z,1.45
2023-05-18T10:45:11.250Z,1.60
2023-05-18T10:48:00.475Z,1.58
2023-05-18T10:50:49.402Z,1.70
2023-05-18T10:53:37.038Z,1.50
2023-05-18T10:56:24.560Z,1.90
2023-05-18T10:59:13.741Z,1.70
2023-05-18T11:02:01.536Z,1.67
2023-05-18T11:04:49.786Z,1.67
2023-05-18T11:07:37.349Z,1.58
2023-05-18T11:10:23.359Z,1.60
2023-05-18T11:13:14.525Z,1.80
2023-05-18T11:16:07.548Z,1.80
2023-05-18T11:18:53.257Z,1.70
2023-05-18T11:21:53.269Z,1.65
2023-05-18T11:24:41.352Z,1.85
2023-05-18T11:27:29.339Z,1.67
2023-05-18T11:30:29.493Z,1.60
2023-05-18T11:33:21.892Z,1.87
2023-05-18T11:36:11.305Z,1.73
2023-05-18T11:39:05.728Z,1.70
2023-05-18T11:42:00.057Z,1.60
2023-05-18T11:44:53.491Z,1.85
2023-05-18T11:47:41.549Z,1.65
2023-05-18T11:50:54.273Z,1.40
2023-05-18T11:53:41.407Z,1.65
2023-05-18T11:56:31.173Z,1.55
2023-05-18T11:59:16.873Z,1.60
2023-05-18T12:02:04.337Z,1.58
2023-05-18T12:04:53.960Z,1.77
2023-05-18T12:07:41.462Z,1.50
2023-05-18T12:10:28.303Z,1.95
2023-05-18T12:13:17.381Z,1.83
2023-05-18T12:16:03.777Z,1.63
2023-05-18T12:18:50.795Z,1.65
2023-05-18T12:21:38.062Z,1.85
2023-05-18T12:24:23.988Z,1.83
2023-05-18T12:27:12.131Z,1.92
2023-05-18T12:29:58.600Z,1.95
2023-05-18T12:32:46.138Z,1.60
2023-05-18T12:35:32.945Z,1.58
2023-05-18T12:38:25.078Z,1.70
2023-05-18T12:41:21.185Z,1.80
2023-05-18T12:44:07.161Z,1.70
2023-05-18T12:46:53.006Z,1.88
2023-05-18T12:49:40.747Z,1.70
2023-05-18T12:52:26.621Z,1.50
2023-05-18T12:55:18.834Z,1.50
2023-05-18T12:58:06.617Z,1.85
2023-05-18T13:00:52.452Z,1.73
2023-05-18T13:03:40.270Z,1.90
2023-05-18T13:06:26.546Z,1.60
2023-05-18T13:09:13.015Z,1.80
2023-05-18T13:12:07.265Z,1.63
2023-05-18T13:14:54.020Z,1.83
2023-05-18T13:17:47.900Z,1.63
2023-05-18T13:20:37.188Z,1.67
2023-05-18T13:23:26.826Z,1.75
2023-05-18T13:26:12.967Z,1.48
2023-05-18T13:29:00.467Z,1.80
2023-05-18T13:31:46.823Z,2.15
2023-05-18T13:34:32.593Z,1.58
2023-05-18T13:37:18.567Z,1.75
2023-05-18T13:40:05.898Z,1.40
2023-05-18T13:42:52.709Z,1.73
2023-05-18T13:45:40.217Z,1.70
2023-05-18T13:48:26.864Z,1.80
2023-05-18T13:51:12.386Z,1.88
2023-05-18T13:53:58.189Z,1.70
2023-05-18T13:56:43.774Z,1.75
2023-05-18T13:59:29.480Z,1.73
2023-05-18T14:02:16.664Z,1.52
2023-05-18T14:05:02.429Z,1.80
2023-05-18T14:07:47.843Z,1.70
2023-05-18T14:10:33.615Z,1.92
2023-05-18T14:13:19.737Z,1.67
2023-05-18T14:16:06.650Z,1.90
2023-05-18T14:18:53.847Z,1.80
2023-05-18T14:21:39.204Z,1.50
2023-05-18T14:24:24.973Z,1.52
2023-05-18T14:27:11.309Z,1.70
2023-05-18T14:29:57.081Z,1.60
2023-05-18T14:32:42.808Z,1.80
2023-05-18T14:35:30.086Z,1.60
2023-05-18T14:38:15.579Z,1.83
2023-05-18T14:41:01.824Z,1.67
2023-05-18T14:43:47.654Z,1.25
2023-05-18T14:46:33.553Z,1.70
2023-05-18T14:49:19.115Z,1.63
2023-05-18T14:52:07.206Z,1.70
2023-05-18T14:54:53.191Z,1.60
2023-05-18T14:57:38.818Z,1.45
2023-05-18T15:00:24.288Z,1.73
2023-05-18T15:03:10.314Z,1.50
2023-05-18T15:05:56.180Z,1.63
2023-05-18T15:08:43.141Z,1.50
2023-05-18T15:11:28.807Z,1.58
2023-05-18T15:14:14.573Z,1.27
2023-05-18T15:17:00.529Z,1.30
2023-05-18T15:19:46.103Z,1.50
2023-05-18T15:22:31.597Z,1.40
2023-05-18T15:25:18.911Z,1.50
2023-05-18T15:28:04.895Z,1.60
2023-05-18T15:30:50.576Z,1.60
2023-05-18T15:33:36.813Z,1.42
2023-05-18T15:36:22.198Z,1.17
2023-05-18T15:39:07.980Z,1.77
2023-05-18T15:41:55.706Z,1.50
2023-05-18T15:44:41.145Z,2.00
2023-05-18T15:50:36.701Z,1.60
2023-05-18T15:53:22.377Z,1.65
2023-05-18T15:56:08.502Z,1.50
2023-05-18T15:58:55.723Z,1.70
2023-05-18T16:01:41.657Z,1.50
2023-05-18T16:04:26.961Z,1.85
2023-05-18T16:07:12.733Z,1.60
2023-05-18T16:09:58.549Z,1.40
2023-05-18T16:12:43.977Z,1.50
2023-05-18T16:15:32.072Z,1.67
2023-05-18T16:18:18.078Z,1.67
2023-05-18T16:21:04.200Z,2.00
2023-05-18T16:23:50.114Z,1.85
2023-05-18T16:26:37.865Z,1.58
2023-05-18T16:29:25.003Z,1.60
2023-05-18T16:32:12.070Z,1.60
2023-05-18T16:34:57.764Z,1.67
2023-05-18T16:37:43.352Z,1.55
2023-05-18T16:40:29.056Z,1.60
2023-05-18T16:43:14.932Z,1.48
2023-05-18T16:46:01.100Z,1.60
2023-05-18T16:48:47.857Z,1.80
2023-05-18T16:51:35.374Z,1.52
2023-05-18T16:54:20.948Z,1.88
2023-05-18T16:57:06.910Z,1.70
2023-05-18T16:59:52.845Z,1.65
2023-05-18T17:02:39.148Z,1.60
2023-05-18T17:05:26.578Z,1.60
2023-05-18T17:08:12.609Z,1.73
2023-05-18T17:10:58.593Z,1.60
2023-05-18T17:13:44.505Z,1.73
2023-05-18T17:16:30.142Z,1.77
2023-05-18T17:19:16.587Z,1.60
2023-05-18T17:22:03.989Z,1.70
2023-05-18T17:24:50.112Z,1.60
2023-05-18T17:27:35.847Z,1.60
2023-05-18T17:30:21.533Z,1.48
2023-05-18T17:33:07.475Z,1.60
2023-05-18T17:35:53.288Z,1.33
2023-05-18T17:38:40.520Z,1.40
2023-05-18T17:41:26.533Z,1.60
2023-05-18T17:44:12.472Z,1.60
2023-05-18T17:46:58.366Z,1.50
2023-05-18T17:49:44.344Z,1.55
2023-05-18T17:52:29.792Z,1.90
2023-05-18T17:55:17.065Z,1.38
2023-05-18T17:58:03.186Z,1.38
2023-05-18T18:00:48.806Z,1.48
2023-05-18T18:03:34.910Z,1.60
2023-05-18T18:06:21.113Z,1.50
2023-05-18T18:09:07.153Z,1.30
2023-05-18T18:11:54.265Z,1.30
2023-05-18T18:14:40.011Z,1.40
2023-05-18T18:17:25.620Z,1.50
2023-05-18T18:20:12.338Z,1.50
2023-05-18T18:22:58.090Z,1.13
2023-05-18T18:25:44.163Z,1.40
2023-05-18T18:28:31.122Z,1.63
2023-05-18T18:31:17.116Z,1.50
2023-05-18T18:34:02.745Z,1.40
2023-05-18T18:36:48.555Z,1.80
2023-05-18T18:39:35.207Z,1.40
2023-05-18T18:42:21.698Z,3.05
2023-05-18T18:45:10.125Z,7.35
2023-05-18T18:47:56.065Z,5.35
2023-05-18T18:50:41.738Z,2.20
2023-05-18T18:53:27.589Z,1.67
2023-05-18T18:56:13.395Z,1.60
2023-05-18T18:58:59.700Z,1.48
2023-05-18T19:01:47.178Z,1.58
2023-05-18T19:07:42.135Z,6.53
2023-05-18T19:10:28.083Z,6.15
2023-05-18T19:13:13.512Z,8.68
2023-05-18T19:16:00.503Z,11.50
2023-05-18T19:18:47.415Z,19.15
2023-05-18T19:21:32.893Z,16.67
2023-05-18T19:24:18.729Z,12.68
2023-05-18T19:27:05.040Z,5.90
2023-05-18T19:29:50.882Z,4.63
2023-05-18T19:32:36.396Z,3.97
2023-05-18T19:35:24.771Z,2.80
2023-05-18T19:38:10.840Z,3.55
2023-05-18T19:40:56.708Z,2.50
2023-05-18T19:43:42.511Z,2.05
2023-05-18T19:46:28.280Z,1.65
2023-05-18T19:49:14.266Z,1.60
2023-05-18T19:52:02.122Z,1.45
2023-05-18T19:54:47.748Z,1.75
2023-05-18T19:57:33.289Z,1.73
2023-05-18T20:00:18.749Z,2.75
2023-05-18T20:03:05.001Z,4.10
2023-05-18T20:05:50.871Z,3.53
2023-05-18T20:08:37.889Z,5.53
2023-05-18T20:11:23.821Z,6.28
2023-05-18T20:14:09.369Z,7.30
2023-05-18T20:16:55.832Z,7.78
2023-05-18T20:19:41.609Z,6.65
2023-05-18T20:22:27.173Z,7.10
2023-05-18T20:25:16.543Z,4.88
2023-05-18T20:28:02.784Z,2.55
2023-05-18T20:30:49.747Z,1.88
2023-05-18T20:33:35.534Z,2.03
2023-05-18T20:36:21.846Z,1.80
2023-05-18T20:39:07.839Z,1.52
2023-05-18T20:41:56.773Z,1.55
2023-05-18T20:44:42.367Z,1.38
2023-05-18T20:47:28.157Z,1.35
2023-05-18T20:50:39.046Z,1.40
2023-05-18T20:53:24.652Z,1.58
2023-05-18T20:56:10.772Z,1.42
2023-05-18T20:58:57.659Z,1.42
2023-05-18T21:01:43.567Z,1.15
2023-05-18T21:04:29.455Z,1.67
2023-05-18T21:07:15.630Z,1.70
2023-05-18T21:10:02.774Z,1.67
2023-05-18T21:12:48.530Z,1.42
2023-05-18T21:15:35.606Z,1.98
2023-05-18T21:18:22.396Z,2.00
2023-05-18T21:21:08.764Z,1.63
2023-05-18T21:23:54.872Z,1.83
2023-05-18T21:26:41.545Z,1.73
2023-05-18T21:29:27.172Z,1.58
2023-05-18T21:32:14.410Z,1.65
2023-05-18T21:35:00.595Z,1.42
2023-05-18T21:37:46.248Z,1.75
2023-05-18T21:40:32.144Z,2.05
2023-05-18T21:43:18.791Z,2.78
2023-05-18T21:46:05.951Z,2.70
2023-05-18T21:48:55.041Z,2.28
2023-05-18T21:51:41.668Z,1.85
2023-05-18T21:54:27.096Z,1.85
2023-05-18T21:57:13.164Z,1.58
2023-05-18T21:59:59.566Z,1.42
2023-05-18T22:02:45.048Z,1.67
2023-05-18T22:05:32.341Z,1.50
2023-05-18T22:08:18.094Z,1.52
2023-05-18T22:11:03.919Z,1.48
2023-05-18T22:13:49.828Z,1.25
2023-05-18T22:16:35.305Z,1.67
2023-05-18T22:19:21.200Z,1.48
2023-05-18T22:22:11.693Z,1.45
2023-05-18T22:25:02.587Z,1.45
2023-05-18T22:27:48.224Z,1.55
2023-05-18T22:30:34.078Z,1.30
2023-05-18T22:33:19.960Z,1.83
2023-05-18T22:36:06.537Z,1.95
2023-05-18T22:38:53.644Z,2.05
2023-05-18T22:41:39.279Z,2.05
2023-05-18T22:44:24.884Z,1.90
2023-05-18T22:47:10.732Z,1.58
2023-05-18T22:49:56.642Z,1.73
2023-05-18T22:52:42.443Z,1.58
2023-05-18T22:55:29.641Z,1.83
2023-05-18T22:58:15.522Z,2.10
2023-05-18T23:01:01.590Z,2.40
2023-05-18T23:03:47.309Z,1.98
2023-05-18T23:06:32.996Z,2.17
2023-05-18T23:09:18.834Z,1.98
2023-05-18T23:12:07.721Z,1.63
2023-05-18T23:14:53.539Z,1.60
2023-05-18T23:17:39.116Z,1.77
2023-05-18T23:20:24.592Z,1.75
2023-05-18T23:23:09.853Z,1.70
2023-05-18T23:25:55.975Z,1.75
2023-05-18T23:28:43.033Z,1.52
2023-05-18T23:31:28.796Z,1.70
2023-05-18T23:34:15.458Z,1.60
2023-05-18T23:37:04.496Z,1.80
2023-05-18T23:39:52.146Z,1.70
2023-05-18T23:42:39.301Z,1.70
2023-05-18T23:45:27.988Z,1.73
2023-05-18T23:48:14.470Z,1.75
2023-05-18T23:51:02.411Z,1.77
2023-05-18T23:53:50.012Z,1.50
2023-05-18T23:56:36.677Z,1.70
2023-05-18T23:59:23.421Z,1.77
